Time;durP1;ratioP1;P1;durP2;ratioP2;P2;SDS_P1;SDS_P2;PMS_P1;PMS_P2;Temp;Humidity;BMP_temperature;BMP_pressure;BME280_temperature;BME280_humidity;BME280_pressure;Samples;Min_cycle;Max_cycle;Signal;HPM_P1;HPM_P2
2022/10/15 00:00:43;;;;;;;4.03;2.20;;;;;;;12.98;100.00;96271.66;4987553;28;20030;-69
2022/10/15 00:03:09;;;;;;;3.90;1.77;;;;;;;12.88;100.00;96267.75;4984722;28;20431;-68
2022/10/15 00:05:36;;;;;;;50.15;13.38;;;;;;;12.94;100.00;96266.19;5001722;28;20027;-68
2022/10/15 00:08:02;;;;;;;15.30;4.32;;;;;;;12.88;100.00;96262.25;4997124;28;20041;-68
2022/10/15 00:10:28;;;;;;;5.40;2.30;;;;;;;12.86;100.00;96255.59;4991331;28;20076;-68
2022/10/15 00:12:54;;;;;;;6.85;2.30;;;;;;;13.00;100.00;96272.88;4991347;28;20054;-68
2022/10/15 00:15:19;;;;;;;3.72;1.88;;;;;;;12.88;100.00;96278.75;4990387;28;21645;-68
2022/10/15 00:17:45;;;;;;;12.95;3.15;;;;;;;12.87;100.00;96268.13;4983023;28;20096;-68
2022/10/15 00:20:10;;;;;;;10.13;2.70;;;;;;;12.90;100.00;96270.13;4995215;28;20092;-68
2022/10/15 00:22:36;;;;;;;7.82;1.85;;;;;;;12.82;100.00;96272.84;4993635;28;20086;-69
2022/10/15 00:25:03;;;;;;;4.07;1.85;;;;;;;12.81;100.00;96262.25;4993183;28;20030;-69
2022/10/15 00:27:28;;;;;;;2.72;1.40;;;;;;;12.91;100.00;96268.91;4991892;28;20077;-68
2022/10/15 00:29:54;;;;;;;20.48;5.30;;;;;;;13.04;100.00;96269.34;4991609;28;20431;-68
2022/10/15 00:32:19;;;;;;;18.15;4.70;;;;;;;12.99;100.00;96271.28;4991179;28;20030;-67
2022/10/15 00:34:45;;;;;;;23.85;6.15;;;;;;;13.00;100.00;96267.38;4991670;28;20026;-67
2022/10/15 00:37:10;;;;;;;6.30;2.72;;;;;;;13.05;100.00;96265.41;4990170;28;20039;-67
2022/10/15 00:39:36;;;;;;;4.03;1.92;;;;;;;13.10;100.00;96265.78;4981462;28;20026;-67
2022/10/15 00:42:02;;;;;;;3.72;1.70;;;;;;;13.13;100.00;96264.22;4990914;28;20041;-67
2022/10/15 00:44:30;;;;;;;4.10;1.60;;;;;;;13.15;100.00;96265.38;4991096;28;20038;-67
2022/10/15 00:47:05;;;;;;;5.57;1.83;;;;;;;13.20;100.00;96254.00;4990432;28;20030;-67
2022/10/15 00:49:39;;;;;;;34.00;9.18;;;;;;;13.22;100.00;96267.34;4991261;28;20093;-67
2022/10/15 00:52:10;;;;;;;12.38;3.40;;;;;;;13.25;100.00;96268.53;4990223;28;20101;-67
2022/10/15 00:54:41;;;;;;;9.60;2.95;;;;;;;13.13;100.00;96265.00;4982198;28;20344;-67
2022/10/15 00:57:08;;;;;;;14.68;4.90;;;;;;;13.21;100.00;96271.28;4981189;28;20368;-67
2022/10/15 00:59:37;;;;;;;9.05;3.05;;;;;;;13.22;100.00;96267.34;4991197;28;20534;-67
2022/10/15 01:02:05;;;;;;;19.05;5.70;;;;;;;13.23;100.00;96262.63;4989559;28;20040;-67
2022/10/15 01:04:31;;;;;;;12.85;3.13;;;;;;;13.23;100.00;96262.63;4991091;28;20395;-67
2022/10/15 01:06:56;;;;;;;5.60;1.80;;;;;;;13.23;100.00;96276.38;4990684;28;20027;-67
2022/10/15 01:09:22;;;;;;;12.80;3.00;;;;;;;13.23;100.00;96274.41;4989798;28;20058;-68
2022/10/15 01:11:51;;;;;;;14.63;3.38;;;;;;;13.12;100.00;96260.66;4989552;28;20030;-67
2022/10/15 01:14:43;;;;;;;5.15;1.90;;;;;;;13.15;100.00;96259.13;4990902;28;20045;-67
2022/10/15 01:17:30;;;;;;;6.82;2.22;;;;;;;13.19;100.00;96259.88;4988440;28;20034;-67
2022/10/15 01:20:16;;;;;;;2.72;1.10;;;;;;;13.29;100.00;96266.53;4993745;28;20523;-67
2022/10/15 01:23:19;;;;;;;5.70;1.60;;;;;;;13.29;100.00;96261.84;4993127;28;20038;-67
2022/10/15 01:26:38;;;;;;;6.43;1.80;;;;;;;13.24;100.00;96264.22;4990398;28;20500;-67
2022/10/15 01:29:22;;;;;;;1.52;1.00;;;;;;;13.21;100.00;96263.03;4953107;29;20086;-66
2022/10/15 01:32:27;;;;;;;5.25;1.80;;;;;;;13.23;100.00;96259.88;4973102;28;20042;-67
2022/10/15 01:35:19;;;;;;;3.70;0.90;;;;;;;13.23;100.00;96254.38;4972823;28;20093;-68
2022/10/15 01:38:13;;;;;;;3.22;1.33;;;;;;;13.15;100.00;96259.13;4986766;28;20057;-67
2022/10/15 01:40:48;;;;;;;1.98;1.10;;;;;;;13.08;100.00;96264.63;4975742;28;20035;-67
2022/10/15 01:43:21;;;;;;;2.08;1.00;;;;;;;13.11;100.00;96261.88;4994243;28;20496;-68
2022/10/15 01:45:59;;;;;;;4.00;1.00;;;;;;;13.20;100.00;96261.47;4993845;28;20036;-67
2022/10/15 01:48:27;;;;;;;5.05;1.38;;;;;;;13.27;100.00;96266.16;4994317;28;20093;-68
2022/10/15 01:50:56;;;;;;;2.20;1.00;;;;;;;13.31;100.00;96258.75;4994049;28;20109;-67
2022/10/15 01:53:25;;;;;;;3.28;1.00;;;;;;;13.32;100.00;96263.81;4992613;28;20439;-67
2022/10/15 01:55:58;;;;;;;2.70;1.10;;;;;;;13.34;100.00;96261.47;4993118;28;20026;-67
2022/10/15 01:58:26;;;;;;;5.38;1.25;;;;;;;13.25;100.00;96255.53;4993986;28;20030;-67
2022/10/15 02:00:54;;;;;;;2.20;1.30;;;;;;;13.23;100.00;96249.66;4993624;28;20038;-68
2022/10/15 02:03:20;;;;;;;3.35;1.13;;;;;;;13.35;100.00;96256.75;4993934;28;20038;-68
2022/10/15 02:05:52;;;;;;;2.90;1.10;;;;;;;13.36;100.00;96248.13;4992699;28;20036;-68
2022/10/15 02:08:33;;;;;;;3.30;1.30;;;;;;;13.28;100.00;96245.75;4993387;28;20034;-68
2022/10/15 02:11:12;;;;;;;2.47;1.25;;;;;;;13.28;100.00;96248.50;4993960;28;20563;-67
2022/10/15 02:13:44;;;;;;;3.22;1.50;;;;;;;13.28;100.00;96246.50;4994812;28;20038;-68
2022/10/15 02:16:20;;;;;;;2.42;1.27;;;;;;;13.36;100.00;96244.56;4996216;28;20039;-67
2022/10/15 02:19:04;;;;;;;4.00;0.90;;;;;;;13.34;100.00;96247.72;4995364;28;20034;-67
2022/10/15 02:21:44;;;;;;;3.72;1.20;;;;;;;13.32;100.00;96249.28;4994484;28;20470;-67
2022/10/15 02:24:18;;;;;;;2.00;1.00;;;;;;;13.41;100.00;96243.38;4992210;28;20121;-67
2022/10/15 02:26:46;;;;;;;2.30;0.80;;;;;;;13.47;100.00;96242.59;4993133;28;20049;-67
2022/10/15 02:29:18;;;;;;;2.80;0.95;;;;;;;13.55;100.00;96246.88;4991859;28;20045;-68
2022/10/15 02:31:46;;;;;;;2.08;0.60;;;;;;;13.59;100.00;96235.88;4993458;28;20121;-67
2022/10/15 02:34:16;;;;;;;3.55;0.80;;;;;;;13.66;100.00;96235.06;4993462;28;20029;-67
2022/10/15 02:36:42;;;;;;;1.92;0.80;;;;;;;13.63;100.00;96246.84;4992269;28;20057;-68
2022/10/15 02:39:14;;;;;;;1.88;0.63;;;;;;;13.54;100.00;96239.00;4992784;28;20037;-68
2022/10/15 02:41:40;;;;;;;1.50;0.70;;;;;;;13.54;100.00;96242.56;4993323;28;20037;-68
2022/10/15 02:44:06;;;;;;;2.35;0.73;;;;;;;13.56;100.00;96236.69;4993448;28;20037;-68
2022/10/15 02:46:31;;;;;;;2.38;0.80;;;;;;;13.63;100.00;96225.66;4991807;28;20038;-68
2022/10/15 02:48:57;;;;;;;1.52;0.80;;;;;;;13.58;100.00;96228.81;4993366;28;20042;-68
2022/10/15 02:51:22;;;;;;;3.80;0.98;;;;;;;13.66;100.00;96235.84;4993171;28;20061;-68
2022/10/15 02:53:48;;;;;;;1.10;0.70;;;;;;;13.79;100.00;96233.44;4974228;28;20065;-68
2022/10/15 02:56:13;;;;;;;1.58;0.70;;;;;;;13.72;100.00;96225.19;4973688;28;20058;-68
2022/10/15 02:58:39;;;;;;;2.33;1.23;;;;;;;13.79;100.00;96225.19;4972552;28;20526;-68
2022/10/15 03:01:04;;;;;;;1.17;0.65;;;;;;;13.81;100.00;96224.78;4973750;28;20027;-68
2022/10/15 03:03:30;;;;;;;6.63;0.80;;;;;;;13.87;100.00;96220.44;4973931;28;20031;-67
2022/10/15 03:05:55;;;;;;;0.88;0.60;;;;;;;13.84;100.00;96222.00;4982907;28;20098;-68
2022/10/15 03:08:20;;;;;;;1.33;0.85;;;;;;;13.84;100.00;96219.25;4983460;28;20105;-68
2022/10/15 03:10:46;;;;;;;1.50;0.85;;;;;;;13.86;100.00;96219.66;4999578;28;20476;-68
2022/10/15 03:13:12;;;;;;;2.20;0.88;;;;;;;13.89;100.00;96226.34;4995138;28;20558;-67
2022/10/15 03:15:37;;;;;;;2.20;0.85;;;;;;;13.87;100.00;96226.72;4991199;28;20102;-67
2022/10/15 03:18:03;;;;;;;2.35;0.80;;;;;;;13.81;100.00;96225.59;4973273;28;20125;-67
2022/10/15 03:20:29;;;;;;;8.90;1.90;;;;;;;13.71;100.00;96220.91;4971994;28;20061;-67
2022/10/15 03:22:55;;;;;;;1.33;0.90;;;;;;;13.62;100.00;96226.03;4988069;28;20058;-67
2022/10/15 03:25:20;;;;;;;2.70;0.90;;;;;;;13.68;100.00;96227.97;4992240;28;20528;-67
2022/10/15 03:27:46;;;;;;;1.90;1.20;;;;;;;13.85;100.00;96231.06;4992492;28;20366;-67
2022/10/15 03:30:12;;;;;;;4.97;0.85;;;;;;;13.76;100.00;96229.53;4987476;28;20038;-66
2022/10/15 03:32:37;;;;;;;1.98;0.93;;;;;;;13.79;100.00;96236.19;4972853;28;20136;-67
2022/10/15 03:35:04;;;;;;;2.97;0.80;;;;;;;13.80;100.00;96235.00;4973834;28;20441;-67
2022/10/15 03:37:30;;;;;;;1.45;0.82;;;;;;;13.82;100.00;96231.88;4973921;28;20066;-67
2022/10/15 03:39:55;;;;;;;1.33;0.75;;;;;;;13.83;100.00;96228.72;4973604;28;20035;-67
2022/10/15 03:42:21;;;;;;;2.97;0.70;;;;;;;13.84;100.00;96224.78;4973182;28;20429;-67
2022/10/15 03:44:46;;;;;;;1.95;0.82;;;;;;;13.79;100.00;96227.94;4978102;28;20041;-67
2022/10/15 03:47:12;;;;;;;2.28;0.95;;;;;;;13.80;100.00;96235.00;4991965;28;20080;-67
2022/10/15 03:49:37;;;;;;;1.60;0.82;;;;;;;13.97;100.00;96236.13;4991086;28;20038;-67
2022/10/15 03:52:03;;;;;;;2.83;0.85;;;;;;;13.98;100.00;96239.66;4992219;28;20030;-67
2022/10/15 03:54:29;;;;;;;2.33;0.90;;;;;;;14.02;100.00;96234.94;4992240;28;20022;-67
2022/10/15 03:56:54;;;;;;;2.65;0.68;;;;;;;14.02;100.00;96232.94;4991467;28;20163;-67
2022/10/15 03:59:20;;;;;;;1.15;0.75;;;;;;;13.98;100.00;96229.44;4991237;28;20038;-67
2022/10/15 04:01:45;;;;;;;2.75;0.85;;;;;;;13.98;100.00;96237.69;4981973;28;20488;-67
2022/10/15 04:04:11;;;;;;;2.53;0.70;;;;;;;14.03;100.00;96228.25;4990234;28;20034;-67
2022/10/15 04:06:37;;;;;;;1.90;0.70;;;;;;;14.02;100.00;96230.19;4991067;28;20032;-67
2022/10/15 04:09:03;;;;;;;8.75;0.95;;;;;;;13.90;100.00;96228.69;4990524;28;20030;-67
2022/10/15 04:11:28;;;;;;;1.60;0.77;;;;;;;13.92;100.00;96228.28;4991667;28;20034;-67
2022/10/15 04:13:54;;;;;;;0.90;0.65;;;;;;;13.85;100.00;96237.34;4989043;28;20037;-67
2022/10/15 04:16:19;;;;;;;4.53;0.90;;;;;;;13.84;100.00;96238.53;4990893;28;20026;-67
2022/10/15 04:18:45;;;;;;;1.60;0.98;;;;;;;13.90;100.00;96234.19;4992001;28;20038;-68
2022/10/15 04:21:10;;;;;;;1.90;0.73;;;;;;;13.98;100.00;96239.66;4990505;28;20027;-67
2022/10/15 04:23:35;;;;;;;1.20;0.73;;;;;;;14.02;100.00;96238.47;4990437;28;20039;-66
2022/10/15 04:26:01;;;;;;;1.45;0.90;;;;;;;13.93;100.00;96244.38;4991354;28;20116;-66
2022/10/15 04:28:27;;;;;;;1.50;0.63;;;;;;;13.90;100.00;96241.66;4991594;28;20488;-68
2022/10/15 04:30:57;;;;;;;3.55;0.82;;;;;;;13.99;100.00;96238.47;4991464;28;20054;-67
2022/10/15 04:33:23;;;;;;;3.17;1.00;;;;;;;13.86;100.00;96252.69;4990304;28;20117;-67
2022/10/15 04:35:59;;;;;;;6.80;0.95;;;;;;;13.82;100.00;96257.41;4990771;28;20076;-67
2022/10/15 04:38:25;;;;;;;1.98;0.90;;;;;;;13.69;100.00;96251.56;4990190;28;20468;-67
2022/10/15 04:41:01;;;;;;;5.65;0.80;;;;;;;13.68;100.00;96251.97;4991643;28;20084;-67
2022/10/15 04:43:27;;;;;;;1.50;0.70;;;;;;;13.67;100.00;96248.44;4988975;28;20045;-67
2022/10/15 04:45:57;;;;;;;2.63;0.80;;;;;;;13.72;100.00;96256.28;4990597;28;20038;-67
2022/10/15 04:48:23;;;;;;;3.38;1.00;;;;;;;13.72;100.00;96245.28;4991520;28;20041;-67
2022/10/15 04:50:48;;;;;;;0.93;0.75;;;;;;;13.70;100.00;96250.41;4991345;28;20045;-68
2022/10/15 04:53:14;;;;;;;2.17;0.90;;;;;;;13.72;100.00;96259.03;4993482;28;20034;-68
2022/10/15 04:55:39;;;;;;;1.25;0.77;;;;;;;13.67;100.00;96255.91;4995543;28;20037;-68
2022/10/15 04:58:05;;;;;;;2.15;0.80;;;;;;;13.62;100.00;96251.59;4994537;28;20034;-68
2022/10/15 05:00:30;;;;;;;2.30;0.80;;;;;;;13.73;100.00;96251.56;4980135;28;20042;-68
2022/10/15 05:02:55;;;;;;;0.60;0.60;;;;;;;13.72;100.00;96244.47;4997312;28;20042;-68
2022/10/15 05:05:21;;;;;;;2.85;0.88;;;;;;;13.64;100.00;96253.94;4997760;28;20611;-67
2022/10/15 05:07:46;;;;;;;4.03;0.60;;;;;;;13.66;100.00;96248.81;4998086;28;20040;-67
2022/10/15 05:10:12;;;;;;;1.70;0.98;;;;;;;13.65;100.00;96261.81;4995534;28;20026;-67
2022/10/15 05:12:37;;;;;;;2.15;1.08;;;;;;;13.65;100.00;96255.50;4994645;28;20114;-67
2022/10/15 05:15:02;;;;;;;3.13;0.70;;;;;;;13.67;100.00;96259.44;4995044;28;20084;-67
2022/10/15 05:17:29;;;;;;;3.92;0.77;;;;;;;13.68;100.00;96251.97;4994820;28;20041;-68
2022/10/15 05:19:54;;;;;;;3.33;1.00;;;;;;;13.67;100.00;96253.94;4995013;28;20038;-68
2022/10/15 05:22:20;;;;;;;1.35;0.70;;;;;;;13.67;100.00;96258.66;4994927;28;20512;-68
2022/10/15 05:24:45;;;;;;;1.60;0.63;;;;;;;13.66;100.00;96255.09;4994919;28;20475;-68
2022/10/15 05:27:10;;;;;;;3.85;0.70;;;;;;;13.63;100.00;96255.13;4989063;28;20034;-70
2022/10/15 05:29:37;;;;;;;4.65;0.80;;;;;;;13.63;100.00;96255.91;4991462;28;20061;-67
2022/10/15 05:32:02;;;;;;;1.58;0.85;;;;;;;13.75;100.00;96255.47;4994513;28;20034;-68
2022/10/15 05:34:29;;;;;;;1.05;0.68;;;;;;;13.71;100.00;96254.69;4993378;28;20037;-68
2022/10/15 05:36:54;;;;;;;3.30;0.80;;;;;;;13.75;100.00;96262.94;4994303;28;20034;-68
2022/10/15 05:39:20;;;;;;;1.98;0.60;;;;;;;13.74;100.00;96264.91;4994654;28;20038;-68
2022/10/15 05:41:45;;;;;;;2.70;0.70;;;;;;;13.76;100.00;96268.06;4992702;28;20391;-67
2022/10/15 05:44:11;;;;;;;0.77;0.57;;;;;;;13.86;100.00;96277.44;4989886;28;20175;-67
2022/10/15 05:46:36;;;;;;;2.20;0.80;;;;;;;13.89;100.00;96279.41;4974899;28;20035;-66
2022/10/15 05:49:02;;;;;;;0.98;0.68;;;;;;;13.96;100.00;96286.88;4975140;28;20031;-66
2022/10/15 05:51:28;;;;;;;1.27;0.75;;;;;;;13.90;100.00;96292.00;4976082;28;20035;-67
2022/10/15 05:53:54;;;;;;;3.10;0.95;;;;;;;13.90;100.00;96294.75;4979469;28;20475;-66
2022/10/15 05:56:20;;;;;;;1.58;0.65;;;;;;;13.90;100.00;96294.75;4977265;28;20042;-67
2022/10/15 05:58:45;;;;;;;3.15;0.80;;;;;;;13.93;100.00;96282.94;4993180;28;20038;-67
2022/10/15 06:01:11;;;;;;;1.10;0.73;;;;;;;13.94;100.00;96286.50;4994795;28;20042;-66
2022/10/15 06:03:39;;;;;;;0.90;0.60;;;;;;;13.92;100.00;96281.38;4993053;28;20251;-66
2022/10/15 06:06:11;;;;;;;0.90;0.47;;;;;;;14.06;100.00;96285.25;4977033;28;20105;-66
2022/10/15 06:08:37;;;;;;;3.50;0.80;;;;;;;13.99;100.00;96294.34;4994019;28;20049;-67
2022/10/15 06:11:03;;;;;;;7.53;0.70;;;;;;;13.93;100.00;96304.97;4992844;28;20030;-69
2022/10/15 06:13:28;;;;;;;1.45;0.68;;;;;;;13.88;100.00;96310.91;4993234;28;20034;-67
2022/10/15 06:15:53;;;;;;;1.85;0.80;;;;;;;13.85;100.00;96316.41;4993021;28;20527;-67
2022/10/15 06:18:19;;;;;;;2.15;0.70;;;;;;;13.84;100.00;96314.81;4993844;28;20542;-66
2022/10/15 06:20:52;;;;;;;4.70;0.80;;;;;;;13.87;100.00;96314.81;4992476;28;20034;-65
2022/10/15 06:23:18;;;;;;;1.73;0.85;;;;;;;13.87;100.00;96327.81;4993604;28;20039;-66
2022/10/15 06:25:44;;;;;;;4.13;1.02;;;;;;;13.84;100.00;96323.88;4989660;28;20035;-66
2022/10/15 06:28:09;;;;;;;3.53;0.90;;;;;;;13.86;100.00;96328.97;4993415;28;20034;-66
2022/10/15 06:30:35;;;;;;;3.78;0.90;;;;;;;13.87;100.00;96333.31;4993491;28;20034;-66
2022/10/15 06:33:01;;;;;;;3.25;1.08;;;;;;;13.89;100.00;96339.19;4993363;28;20420;-67
2022/10/15 06:35:29;;;;;;;2.10;0.90;;;;;;;13.98;100.00;96336.81;4992944;28;20026;-67
2022/10/15 06:37:55;;;;;;;2.97;1.20;;;;;;;14.16;100.00;96342.25;4993279;28;20442;-66
2022/10/15 06:40:20;;;;;;;3.70;2.00;;;;;;;14.18;100.00;96347.38;4991975;28;20034;-69
2022/10/15 06:42:46;;;;;;;3.55;1.70;;;;;;;14.14;100.00;96342.66;4993280;28;20340;-67
2022/10/15 06:45:11;;;;;;;1.63;1.08;;;;;;;14.22;100.00;96356.41;4993215;28;20069;-69
2022/10/15 06:47:39;;;;;;;6.07;0.80;;;;;;;14.31;100.00;96357.56;4992674;28;20526;-67
2022/10/15 06:50:05;;;;;;;2.92;0.90;;;;;;;14.28;100.00;96352.06;4991032;28;20042;-67
2022/10/15 06:52:31;;;;;;;3.28;0.90;;;;;;;14.33;100.00;96362.66;4993086;28;20080;-67
2022/10/15 06:54:57;;;;;;;2.22;0.90;;;;;;;14.44;100.00;96368.94;4993418;28;20476;-68
2022/10/15 06:57:24;;;;;;;2.80;0.93;;;;;;;14.48;100.00;96371.66;4992514;28;20058;-69
2022/10/15 06:59:51;;;;;;;2.97;1.08;;;;;;;14.45;100.00;96380.72;4982384;28;20053;-68
2022/10/15 07:02:18;;;;;;;7.50;1.00;;;;;;;14.43;100.00;96383.09;4976412;28;20046;-67
2022/10/15 07:04:44;;;;;;;1.58;0.85;;;;;;;14.40;100.00;96384.66;4984085;28;20046;-68
2022/10/15 07:07:10;;;;;;;2.38;0.73;;;;;;;14.46;100.00;96383.09;4978152;28;20057;-67
2022/10/15 07:09:35;;;;;;;1.13;0.68;;;;;;;14.46;100.00;96396.09;4982990;28;20042;-67
2022/10/15 07:12:01;;;;;;;5.13;0.80;;;;;;;14.56;100.00;96400.75;4984929;28;20053;-67
2022/10/15 07:14:26;;;;;;;3.90;1.00;;;;;;;14.66;100.00;96390.91;4978061;28;20503;-66
2022/10/15 07:16:52;;;;;;;1.63;0.90;;;;;;;14.65;100.00;96401.13;4981956;28;20066;-68
2022/10/15 07:19:17;;;;;;;3.17;1.20;;;;;;;14.60;100.00;96398.78;4979742;28;20050;-68
2022/10/15 07:21:42;;;;;;;3.65;1.00;;;;;;;14.55;100.00;96401.94;4982742;28;20077;-68
2022/10/15 07:24:08;;;;;;;1.65;0.90;;;;;;;14.57;100.00;96393.25;4980406;28;20058;-67
2022/10/15 07:26:33;;;;;;;1.70;1.00;;;;;;;14.54;100.00;96398.38;4983129;28;20096;-67
2022/10/15 07:28:59;;;;;;;2.45;1.42;;;;;;;14.66;100.00;96404.69;4983543;28;20042;-67
2022/10/15 07:31:25;;;;;;;3.53;1.23;;;;;;;14.49;100.00;96406.28;4978683;28;20511;-67
2022/10/15 07:33:50;;;;;;;3.80;2.03;;;;;;;14.51;100.00;96404.72;4977255;28;20042;-68
2022/10/15 07:36:16;;;;;;;3.70;2.08;;;;;;;14.54;100.00;96403.13;4967943;28;20061;-68
2022/10/15 07:38:42;;;;;;;3.42;2.15;;;;;;;14.67;100.00;96404.25;4983350;28;20391;-68
2022/10/15 07:41:09;;;;;;;3.28;1.08;;;;;;;14.78;100.00;96408.94;4978740;28;20058;-66
2022/10/15 07:43:35;;;;;;;3.08;1.08;;;;;;;14.72;100.00;96409.38;4981318;28;20045;-66
2022/10/15 07:46:01;;;;;;;3.75;1.30;;;;;;;14.59;100.00;96419.28;4983253;28;20137;-67
2022/10/15 07:48:27;;;;;;;7.95;2.42;;;;;;;14.63;100.00;96414.53;4959181;28;20129;-68
2022/10/15 07:50:58;;;;;;;1.88;1.17;;;;;;;14.68;100.00;96416.88;4960624;28;20126;-68
2022/10/15 07:53:24;;;;;;;3.15;1.02;;;;;;;14.77;100.00;96418.44;4958558;28;20527;-68
2022/10/15 07:55:49;;;;;;;4.78;1.30;;;;;;;14.89;100.00;96416.00;4963027;28;20074;-68
2022/10/15 07:58:15;;;;;;;3.63;1.80;;;;;;;15.09;100.00;96416.28;4958563;28;20424;-67
2022/10/15 08:00:40;;;;;;;2.70;1.10;;;;;;;15.21;100.00;96412.25;4980385;28;20550;-68
2022/10/15 08:03:06;;;;;;;8.45;1.60;;;;;;;15.40;100.00;96418.44;4977579;28;20097;-66
2022/10/15 08:05:32;;;;;;;5.35;1.10;;;;;;;15.56;100.00;96410.44;4981328;28;20050;-68
2022/10/15 08:07:58;;;;;;;1.67;1.00;;;;;;;15.64;100.00;96409.16;4983125;28;20046;-67
2022/10/15 08:10:23;;;;;;;4.75;0.80;;;;;;;15.67;100.00;96413.13;4978451;28;20397;-68
2022/10/15 08:12:49;;;;;;;2.08;0.90;;;;;;;15.68;100.00;96422.94;4969327;28;20050;-68
2022/10/15 08:15:14;;;;;;;1.52;1.02;;;;;;;15.54;100.00;96410.06;4974420;28;20034;-68
2022/10/15 08:17:40;;;;;;;4.95;0.93;;;;;;;15.54;100.00;96420.31;4982045;28;20046;-68
2022/10/15 08:20:06;;;;;;;2.47;1.10;;;;;;;15.44;100.00;96421.97;4978777;28;20041;-68
2022/10/15 08:22:32;;;;;;;3.95;0.82;;;;;;;15.38;100.00;96415.31;4970971;28;20052;-68
2022/10/15 08:24:57;;;;;;;1.58;0.85;;;;;;;15.36;100.00;96421.22;4983148;28;20050;-68
2022/10/15 08:27:23;;;;;;;1.98;0.88;;;;;;;15.33;100.00;96416.50;4972431;28;20101;-67
2022/10/15 08:29:49;;;;;;;2.70;1.05;;;;;;;15.34;100.00;96415.34;4973094;28;20057;-68
2022/10/15 08:32:14;;;;;;;1.92;1.08;;;;;;;15.33;100.00;96416.50;4976485;28;20050;-68
2022/10/15 08:34:39;;;;;;;3.42;1.02;;;;;;;15.47;100.00;96412.88;4981500;28;20065;-68
2022/10/15 08:37:05;;;;;;;2.55;1.17;;;;;;;15.63;100.00;96426.16;4979150;28;20526;-67
2022/10/15 08:39:30;;;;;;;1.40;0.70;;;;;;;15.74;100.00;96434.38;4981536;28;20051;-67
2022/10/15 08:42:00;;;;;;;3.13;1.10;;;;;;;15.88;100.00;96431.47;4958067;28;20046;-67
2022/10/15 08:44:27;;;;;;;;;;;;;;;15.89;100.00;96429.53;4974893;28;20081;-69
2022/10/15 08:47:01;;;;;;;3.65;0.88;;;;;;;16.08;100.00;96436.44;4983599;28;19943;-67
2022/10/15 08:49:37;;;;;;;4.47;0.95;;;;;;;16.41;100.00;96441.22;4987099;28;20046;-68
2022/10/15 08:52:15;;;;;;;6.18;1.00;;;;;;;17.20;100.00;96447.81;4981130;28;20066;-66
2022/10/15 08:54:40;;;;;;;3.10;1.20;;;;;;;17.41;100.00;96446.72;4982602;28;20074;-67
2022/10/15 08:57:24;;;;;;;3.88;1.15;;;;;;;17.14;100.00;96446.69;4977029;28;20045;-66
2022/10/15 09:00:03;;;;;;;3.55;0.80;;;;;;;17.66;100.00;96440.81;4948005;28;20576;-66
2022/10/15 09:02:46;;;;;;;2.55;0.60;;;;;;;18.36;100.00;96446.78;4987084;28;20725;-67
2022/10/15 09:05:12;;;;;;;2.08;0.50;;;;;;;18.64;100.00;96443.47;4967708;28;20047;-67
2022/10/15 09:07:46;;;;;;;2.42;0.70;;;;;;;19.10;100.00;96430.69;4980925;28;20049;-67
2022/10/15 09:10:17;;;;;;;5.90;1.00;;;;;;;19.23;100.00;96446.66;4977160;28;20045;-66
2022/10/15 09:13:00;;;;;;;4.68;1.00;;;;;;;19.24;100.00;96449.00;4981815;28;20039;-67
2022/10/15 09:15:29;;;;;;;2.03;0.93;;;;;;;19.54;100.00;96436.03;4977342;28;20403;-66
2022/10/15 09:17:55;;;;;;;1.50;0.70;;;;;;;19.82;100.00;96436.59;4980546;28;20387;-67
2022/10/15 09:20:33;;;;;;;1.48;0.60;;;;;;;20.28;100.00;96434.66;4969716;28;20848;-67
2022/10/15 09:22:59;;;;;;;1.85;0.88;;;;;;;20.84;100.00;96439.13;4981605;28;20169;-67
2022/10/15 09:25:33;;;;;;;5.05;0.80;;;;;;;21.29;100.00;96438.19;4978965;28;20681;-67
2022/10/15 09:28:07;;;;;;;3.00;0.68;;;;;;;20.07;100.00;96444.31;4982734;28;20042;-68
2022/10/15 09:30:46;;;;;;;5.35;0.80;;;;;;;19.48;100.00;96441.34;4982078;28;20050;-67
2022/10/15 09:33:26;;;;;;;3.70;0.80;;;;;;;19.59;100.00;96446.66;4972753;28;20046;-68
2022/10/15 09:35:58;;;;;;;5.55;1.05;;;;;;;19.16;100.00;96455.94;4982070;28;20050;-68
2022/10/15 09:38:26;;;;;;;2.35;1.05;;;;;;;19.63;100.00;96457.69;4976898;28;20703;-68
2022/10/15 09:41:24;;;;;;;2.05;1.00;;;;;;;19.62;100.00;96448.53;4984486;28;20392;-69
2022/10/15 09:43:54;;;;;;;5.05;0.65;;;;;;;19.75;100.00;96450.66;4980598;28;20042;-68
2022/10/15 09:46:20;;;;;;;2.45;0.70;;;;;;;19.15;100.00;96446.03;4979458;28;20108;-68
2022/10/15 09:48:52;;;;;;;7.32;1.25;;;;;;;18.95;100.00;96440.50;4967494;28;20047;-67
2022/10/15 09:51:28;;;;;;;5.53;1.38;;;;;;;19.09;100.00;96445.00;4963751;28;20043;-67
2022/10/15 09:54:06;;;;;;;5.72;2.55;;;;;;;18.65;100.00;96447.03;4968290;28;20042;-66
2022/10/15 09:56:37;;;;;;;2.15;0.98;;;;;;;18.45;100.00;96453.34;4966600;28;20077;-68
2022/10/15 09:59:03;;;;;;;3.08;1.00;;;;;;;18.62;100.00;96447.88;4963048;28;20073;-67
2022/10/15 10:01:30;;;;;;;2.00;0.80;;;;;;;18.49;100.00;96456.03;4967852;28;20480;-68
2022/10/15 10:04:09;;;;;;;4.13;0.82;;;;;;;18.62;100.00;96456.19;4984711;28;20073;-67
2022/10/15 10:06:52;;;;;;;4.07;0.80;;;;;;;19.40;100.00;96453.03;4983827;28;20073;-67
2022/10/15 10:09:24;;;;;;;6.97;0.70;;;;;;;20.21;100.00;96452.28;4975756;28;20050;-67
2022/10/15 10:11:56;;;;;;;5.10;0.70;;;;;;;20.47;100.00;96449.63;4984583;28;20062;-68
2022/10/15 10:14:48;;;;;;;1.95;0.70;;;;;;;20.93;100.00;96455.19;4980819;28;20582;-67
2022/10/15 10:17:18;;;;;;;2.08;0.70;;;;;;;21.56;97.75;96445.38;4955927;28;20129;-68
2022/10/15 10:20:00;;;;;;;2.15;0.60;;;;;;;21.50;97.15;96453.50;4985679;28;20042;-68
2022/10/15 10:22:26;;;;;;;0.63;0.50;;;;;;;22.74;88.88;96448.25;4981458;28;20161;-67
2022/10/15 10:24:51;;;;;;;4.32;0.80;;;;;;;22.95;84.82;96453.06;4985625;28;20544;-67
2022/10/15 10:27:20;;;;;;;7.13;3.47;;;;;;;22.78;85.36;96455.28;4978647;28;20042;-68
2022/10/15 10:29:52;;;;;;;1.65;0.80;;;;;;;23.31;78.70;96457.34;4984161;28;20093;-67
2022/10/15 10:32:20;;;;;;;5.97;0.90;;;;;;;23.43;80.58;96458.50;4979910;28;20310;-68
2022/10/15 10:34:47;;;;;;;5.33;1.10;;;;;;;23.43;78.71;96464.09;4985702;28;20105;-69
2022/10/15 10:37:12;;;;;;;1.38;0.40;;;;;;;22.67;81.05;96458.44;4978703;28;20296;-67
2022/10/15 10:39:38;;;;;;;2.58;1.10;;;;;;;21.77;86.08;96450.28;4981737;28;20042;-66
2022/10/15 10:42:06;;;;;;;5.05;0.93;;;;;;;21.25;91.36;96451.47;4966903;28;20397;-66
2022/10/15 10:44:38;;;;;;;6.40;2.13;;;;;;;21.19;89.08;96456.00;4961466;28;20046;-66
2022/10/15 10:47:14;;;;;;;3.60;0.75;;;;;;;20.93;92.08;96457.97;4963054;28;20035;-66
2022/10/15 10:49:56;;;;;;;0.75;0.47;;;;;;;20.55;93.99;96455.81;4964716;28;20101;-66
2022/10/15 10:52:30;;;;;;;3.22;0.60;;;;;;;20.41;97.14;96454.19;4959178;28;20487;-66
2022/10/15 10:55:16;;;;;;;1.73;0.70;;;;;;;20.06;100.00;96459.44;4978307;28;20042;-68
2022/10/15 10:57:55;;;;;;;7.30;1.00;;;;;;;19.61;100.00;96460.88;4983942;28;20132;-67
2022/10/15 11:00:28;;;;;;;4.00;2.57;;;;;;;19.43;100.00;96461.28;4975408;28;20561;-67
2022/10/15 11:02:54;;;;;;;2.25;1.60;;;;;;;19.53;100.00;96461.47;4979043;28;20046;-68
2022/10/15 11:05:25;;;;;;;5.57;2.08;;;;;;;19.33;100.00;96476.19;4978919;28;20403;-67
2022/10/15 11:08:00;;;;;;;1.40;0.88;;;;;;;18.85;100.00;96472.03;4984128;28;20430;-67
2022/10/15 11:10:50;;;;;;;1.90;0.80;;;;;;;18.58;100.00;96474.91;4979744;28;20423;-67
2022/10/15 11:13:32;;;;;;;2.83;1.75;;;;;;;18.50;100.00;96474.25;4979289;28;20058;-68
2022/10/15 11:16:15;;;;;;;3.88;1.60;;;;;;;18.47;100.00;96477.88;4982623;28;20047;-66
2022/10/15 11:19:25;;;;;;;1.98;1.20;;;;;;;18.40;100.00;96483.56;4980663;28;20451;-66
2022/10/15 11:22:28;;;;;;;2.03;1.00;;;;;;;18.45;100.00;96481.06;4981177;28;20043;-67
2022/10/15 11:25:14;;;;;;;1.50;1.10;;;;;;;18.46;100.00;96476.31;4985104;28;20049;-67
2022/10/15 11:27:48;;;;;;;1.73;0.80;;;;;;;18.29;100.00;96469.88;4949077;28;20066;-67
2022/10/15 11:30:59;;;;;;;2.83;1.10;;;;;;;18.23;100.00;96466.03;4982517;28;20196;-67
2022/10/15 11:33:50;;;;;;;5.32;1.00;;;;;;;18.08;100.00;96468.28;4962481;28;20133;-69
2022/10/15 11:36:21;;;;;;;4.78;1.23;;;;;;;18.08;100.00;96471.06;4977889;28;20082;-67